My webcam more information My webcam


Visit other weathersites:

Galway City Weather

Moycullen Weather

Waterford City Weather

Charlestown Weather

Clevedon Weather



Weather Underground History page Text

Daily Summary for June 25, 2017 Units:  Metric    English   Both
« Previous Day
Next Day »
Daily Weekly Monthly Yearly Custom
  Current: High: Low: Average:
Temperature: 15.9 °C 16.1 °C 10.4 °C 12.5 °C
Dew Point: 10.2 °C 11.5 °C 9.4 °C 10.4 °C
Humidity: 69 % 98 % 69 % 88 %
Wind Speed: 4.2 km/h 9.7 km/h 0.0 km/h 1.8 km/h
Wind Gust: 9.7 km/h 18.5 km/h - -
Wind:ESE - - SE
Pressure: 1013.1 hPa 1013.1 hPa 1008.7 hPa -
Precipitation: 2.0 mm      
Historical Graphs
 
 
Tabular Data for June 25, 2017
Time Temperature Dew Point Pressure Wind Wind Speed Wind Gust Humidity Rainfall Rate (Hourly)
00:02 11.9 °C 11.4 °C 1009.0 hPa NE 0.6 km/h 1.9 km/h 97 % 0.3 mm
00:07 11.9 °C 11.4 °C 1009.0 hPa Calm     97 % 0.3 mm
00:12 11.9 °C 11.4 °C 1009.0 hPa Calm     97 % 0.3 mm
00:17 11.8 °C 11.4 °C 1009.0 hPa Calm     97 % 0.3 mm
00:22 11.9 °C 11.4 °C 1009.0 hPa Calm     97 % 0.3 mm
00:27 11.8 °C 11.4 °C 1008.7 hPa Calm     97 % 0.3 mm
00:32 11.8 °C 11.4 °C 1008.7 hPa Calm     97 % 0.3 mm
00:37 11.8 °C 11.4 °C 1008.7 hPa Calm     97 % 0.3 mm
00:42 11.8 °C 11.3 °C 1008.7 hPa Calm     97 % 0.3 mm
00:47 11.8 °C 11.3 °C 1008.7 hPa Calm     97 % 0.3 mm
00:52 11.8 °C 11.3 °C 1008.7 hPa Calm     97 % 0.3 mm
00:57 11.7 °C 11.3 °C 1008.7 hPa Calm     97 % 0.3 mm
01:02 11.7 °C 11.3 °C 1008.7 hPa Calm     97 % 0.3 mm
01:07 11.8 °C 11.3 °C 1008.7 hPa Calm     97 % 0.3 mm
01:12 11.7 °C 11.3 °C 1008.7 hPa Calm     97 % 0.3 mm
01:18 11.7 °C 11.3 °C 1008.7 hPa Calm     97 % 0.3 mm
01:23 11.7 °C 11.2 °C 1008.7 hPa Calm     97 % 0.3 mm
01:28 11.7 °C 11.2 °C 1008.7 hPa Calm     97 % 0.3 mm
01:33 11.7 °C 11.2 °C 1008.7 hPa Calm     97 % 0.3 mm
01:38 11.7 °C 11.2 °C 1008.7 hPa Calm     97 % 0.3 mm
01:43 11.7 °C 11.4 °C 1008.7 hPa Calm     98 % 0.5 mm
01:48 11.7 °C 11.4 °C 1008.7 hPa Calm     98 % 0.5 mm
01:53 11.7 °C 11.4 °C 1008.7 hPa NE 0.5 km/h 3.7 km/h 98 % 0.5 mm
01:58 11.7 °C 11.4 °C 1008.7 hPa NE 0.5 km/h 1.9 km/h 98 % 0.5 mm
02:03 11.7 °C 11.4 °C 1008.7 hPa Calm     98 % 0.5 mm
02:08 11.7 °C 11.4 °C 1008.7 hPa NE 0.5 km/h 1.9 km/h 98 % 0.5 mm
02:13 11.8 °C 11.5 °C 1008.7 hPa NE 2.6 km/h 5.6 km/h 98 % 0.5 mm
02:18 11.8 °C 11.5 °C 1008.7 hPa NE 0.5 km/h 1.9 km/h 98 % 0.5 mm
02:23 11.8 °C 11.5 °C 1008.7 hPa SSE 1.3 km/h 1.9 km/h 98 % 0.5 mm
02:28 11.7 °C 11.4 °C 1008.7 hPa SSW 0.3 km/h 1.9 km/h 98 % 0.5 mm
02:34 11.7 °C 11.4 °C 1009.0 hPa SSW 1.1 km/h 3.7 km/h 98 % 0.5 mm
02:39 11.7 °C 11.4 °C 1008.7 hPa SSW 1.1 km/h 1.9 km/h 98 % 0.5 mm
02:45 11.7 °C 11.4 °C 1008.7 hPa SSW 0.6 km/h 1.9 km/h 98 % 0.5 mm
02:50 11.7 °C 11.4 °C 1008.7 hPa ESE 1.9 km/h 5.6 km/h 98 % 0.5 mm
02:55 11.7 °C 11.4 °C 1008.7 hPa WSW 1.8 km/h 3.7 km/h 98 % 0.8 mm
03:00 11.6 °C 11.3 °C 1008.7 hPa SW 2.3 km/h 6.4 km/h 98 % 0.8 mm
03:05 11.7 °C 11.4 °C 1008.7 hPa SSW 3.1 km/h 6.4 km/h 98 % 0.8 mm
03:10 11.6 °C 11.3 °C 1008.7 hPa SSE 3.2 km/h 8.0 km/h 98 % 0.8 mm
03:15 11.5 °C 11.2 °C 1009.0 hPa SSW 2.1 km/h 5.6 km/h 98 % 0.8 mm
03:20 11.4 °C 11.1 °C 1009.0 hPa SSW 1.0 km/h 3.2 km/h 98 % 0.5 mm
03:25 11.3 °C 11.1 °C 1009.0 hPa East 1.9 km/h 5.6 km/h 98 % 0.5 mm
03:30 11.3 °C 11.1 °C 1009.0 hPa East 1.1 km/h 3.7 km/h 98 % 0.5 mm
03:35 11.3 °C 11.0 °C 1009.0 hPa East 1.3 km/h 5.6 km/h 98 % 0.5 mm
03:40 11.2 °C 10.9 °C 1009.4 hPa SW 0.6 km/h 5.6 km/h 98 % 0.5 mm
03:45 11.2 °C 10.9 °C 1009.4 hPa SSE 1.8 km/h 3.7 km/h 98 % 0.5 mm
03:50 11.1 °C 10.8 °C 1009.4 hPa SW 2.3 km/h 7.4 km/h 98 % 0.5 mm
03:55 11.0 °C 10.7 °C 1009.4 hPa ESE 2.1 km/h 6.4 km/h 98 % 0.5 mm
04:00 11.0 °C 10.7 °C 1009.4 hPa SSW 6.1 km/h 11.3 km/h 98 % 0.5 mm
04:05 11.1 °C 10.8 °C 1009.4 hPa SSW 2.3 km/h 5.6 km/h 98 % 0.5 mm
04:10 11.1 °C 10.8 °C 1009.4 hPa SSW 2.3 km/h 5.6 km/h 98 % 0.5 mm
04:15 11.1 °C 10.8 °C 1009.4 hPa SW 2.6 km/h 6.4 km/h 98 % 0.5 mm
04:21 11.1 °C 10.8 °C 1009.4 hPa South 0.6 km/h 3.7 km/h 98 % 0.5 mm
04:26 11.0 °C 10.7 °C 1009.4 hPa Calm     98 % 0.5 mm
04:31 11.0 °C 10.7 °C 1009.4 hPa South 0.3 km/h 3.7 km/h 98 % 0.5 mm
04:36 10.9 °C 10.7 °C 1009.4 hPa SE 0.3 km/h 1.9 km/h 98 % 0.5 mm
04:41 10.9 °C 10.7 °C 1009.4 hPa SSE 1.0 km/h 1.9 km/h 98 % 0.3 mm
04:46 10.9 °C 10.6 °C 1009.4 hPa Calm   3.2 km/h 98 % 0.3 mm
04:51 10.9 °C 10.6 °C 1009.4 hPa South 1.0 km/h 3.7 km/h 98 % 0.0 mm
04:56 10.9 °C 10.6 °C 1009.4 hPa South 0.8 km/h 3.7 km/h 98 % 0.0 mm
05:01 10.8 °C 10.5 °C 1009.7 hPa SE 1.6 km/h 5.6 km/h 98 % 0.0 mm
05:06 10.8 °C 10.5 °C 1009.7 hPa ESE 1.0 km/h 5.6 km/h 98 % 0.0 mm
05:11 10.8 °C 10.5 °C 1009.7 hPa SSW 2.6 km/h 5.6 km/h 98 % 0.3 mm
05:16 10.8 °C 10.6 °C 1009.7 hPa SW 2.1 km/h 5.6 km/h 98 % 0.3 mm
05:21 10.8 °C 10.5 °C 1009.7 hPa West 1.4 km/h 5.6 km/h 98 % 0.3 mm
05:26 10.7 °C 10.4 °C 1009.7 hPa SSW 1.1 km/h 3.7 km/h 98 % 0.3 mm
05:31 10.6 °C 10.3 °C 1009.7 hPa South 1.0 km/h 3.7 km/h 98 % 0.3 mm
05:36 10.4 °C 10.0 °C 1009.7 hPa SSW 1.1 km/h 5.6 km/h 97 % 0.3 mm
05:41 10.4 °C 10.2 °C 1009.7 hPa SW 0.6 km/h 3.7 km/h 98 % 0.3 mm
05:46 10.5 °C 10.1 °C 1009.7 hPa ESE 0.6 km/h 5.6 km/h 97 % 0.3 mm
05:51 10.5 °C 10.1 °C 1009.7 hPa SSW 1.1 km/h 6.4 km/h 97 % 0.3 mm
05:57 10.6 °C 10.1 °C 1010.0 hPa SE 1.8 km/h 5.6 km/h 97 % 0.3 mm
06:02 10.6 °C 10.2 °C 1010.0 hPa SE 0.5 km/h 1.9 km/h 97 % 0.3 mm
06:07 10.6 °C 10.2 °C 1010.0 hPa SSW 0.5 km/h 1.9 km/h 97 % 0.3 mm
06:12 10.6 °C 10.2 °C 1010.0 hPa SE 0.3 km/h 5.6 km/h 97 % 0.0 mm
06:17 10.7 °C 10.2 °C 1010.0 hPa South 1.0 km/h 1.9 km/h 97 % 0.0 mm
06:22 10.7 °C 10.1 °C 1010.0 hPa Calm   3.7 km/h 96 % 0.0 mm
06:27 10.7 °C 10.1 °C 1010.0 hPa Calm   1.6 km/h 96 % 0.0 mm
06:32 10.7 °C 10.1 °C 1010.0 hPa East 0.2 km/h 3.7 km/h 96 % 0.0 mm
06:37 10.8 °C 10.0 °C 1010.0 hPa East 3.1 km/h 8.0 km/h 95 % 0.0 mm
06:42 10.8 °C 10.1 °C 1010.0 hPa East 1.6 km/h 3.7 km/h 95 % 0.0 mm
06:47 10.9 °C 10.1 °C 1010.0 hPa ESE 1.6 km/h 5.6 km/h 95 % 0.0 mm
06:52 10.9 °C 10.0 °C 1010.4 hPa ESE 1.8 km/h 6.4 km/h 94 % 0.0 mm
06:57 11.0 °C 10.1 °C 1010.4 hPa SE 0.6 km/h 3.7 km/h 94 % 0.0 mm
07:02 10.9 °C 9.8 °C 1010.4 hPa East 1.8 km/h 5.6 km/h 93 % 0.0 mm
07:07 11.0 °C 9.9 °C 1010.4 hPa East 1.1 km/h 3.7 km/h 93 % 0.0 mm
07:12 11.1 °C 9.9 °C 1010.7 hPa ESE 0.3 km/h 5.6 km/h 93 % 0.0 mm
07:18 11.1 °C 9.9 °C 1010.7 hPa Calm   3.7 km/h 93 % 0.0 mm
07:23 11.1 °C 9.8 °C 1010.7 hPa SE 1.3 km/h 5.6 km/h 92 % 0.0 mm
07:28 11.0 °C 9.4 °C 1010.7 hPa SE 1.0 km/h 3.7 km/h 90 % 0.0 mm
07:33 11.1 °C 9.6 °C 1010.7 hPa ESE 1.4 km/h 5.6 km/h 90 % 0.0 mm
07:38 11.2 °C 9.5 °C 1010.7 hPa ESE 1.6 km/h 13.0 km/h 89 % 0.0 mm
07:43 11.3 °C 9.8 °C 1010.7 hPa ESE 0.3 km/h 1.9 km/h 90 % 0.0 mm
07:48 11.5 °C 9.9 °C 1010.7 hPa ESE 0.2 km/h 1.9 km/h 90 % 0.0 mm
07:53 11.6 °C 9.6 °C 1010.7 hPa East 0.5 km/h 3.7 km/h 88 % 0.0 mm
07:58 11.7 °C 9.6 °C 1010.7 hPa East 1.6 km/h 4.8 km/h 87 % 0.0 mm
08:03 11.8 °C 9.5 °C 1010.7 hPa East 1.9 km/h 6.4 km/h 86 % 0.0 mm
08:08 11.8 °C 9.4 °C 1010.7 hPa ESE 1.0 km/h 3.7 km/h 85 % 0.0 mm
08:13 12.3 °C 9.9 °C 1010.7 hPa SSW 1.6 km/h 4.8 km/h 85 % 0.0 mm
08:18 12.7 °C 9.7 °C 1011.1 hPa SE 2.7 km/h 8.0 km/h 82 % 0.0 mm
08:23 13.0 °C 10.0 °C 1011.1 hPa ESE 1.9 km/h 4.8 km/h 82 % 0.0 mm
08:28 13.4 °C 10.1 °C 1011.1 hPa SE 2.6 km/h 5.6 km/h 80 % 0.0 mm
08:33 13.6 °C 10.2 °C 1011.1 hPa ESE 0.6 km/h 5.6 km/h 80 % 0.0 mm
08:39 14.1 °C 10.3 °C 1011.1 hPa East 3.7 km/h 8.0 km/h 78 % 0.0 mm
08:44 13.9 °C 10.1 °C 1011.1 hPa ESE 0.6 km/h 5.6 km/h 78 % 0.0 mm
08:49 13.7 °C 9.8 °C 1011.1 hPa SE 2.3 km/h 6.4 km/h 77 % 0.0 mm
08:54 13.6 °C 10.1 °C 1011.4 hPa West 1.4 km/h 3.7 km/h 79 % 0.0 mm
08:59 14.0 °C 10.2 °C 1011.1 hPa SSE 1.4 km/h 3.7 km/h 78 % 0.0 mm
09:04 14.4 °C 10.1 °C 1011.4 hPa East 2.3 km/h 5.6 km/h 75 % 0.0 mm
09:09 14.5 °C 9.9 °C 1011.4 hPa East 2.6 km/h 9.7 km/h 74 % 0.0 mm
09:14 14.8 °C 9.8 °C 1011.4 hPa SSW 3.1 km/h 7.4 km/h 72 % 0.0 mm
09:19 14.9 °C 10.3 °C 1011.4 hPa East 1.6 km/h 5.6 km/h 74 % 0.0 mm
09:24 14.8 °C 10.1 °C 1011.7 hPa ESE 3.4 km/h 8.0 km/h 73 % 0.0 mm
09:27 14.8 °C 9.6 °C 1011.7 hPa East 7.6 km/h 14.8 km/h 71 % 0.0 mm
09:32 14.9 °C 10.3 °C 1011.7 hPa ESE 2.4 km/h 6.4 km/h 74 % 0.0 mm
09:37 14.9 °C 10.1 °C 1011.7 hPa SE 2.9 km/h 9.7 km/h 73 % 0.0 mm
09:42 14.7 °C 10.1 °C 1011.7 hPa ESE 5.5 km/h 11.3 km/h 74 % 0.0 mm
09:47 14.4 °C 9.8 °C 1011.7 hPa ESE 3.1 km/h 4.8 km/h 74 % 0.0 mm
09:52 14.3 °C 10.1 °C 1011.7 hPa ESE 3.9 km/h 8.0 km/h 76 % 0.0 mm
09:57 14.2 °C 10.0 °C 1011.7 hPa East 3.2 km/h 9.3 km/h 76 % 0.0 mm
10:03 13.9 °C 10.2 °C 1011.7 hPa ENE 1.4 km/h 3.2 km/h 78 % 0.0 mm
10:08 13.7 °C 9.7 °C 1011.7 hPa East 6.6 km/h 11.3 km/h 77 % 0.0 mm
10:13 13.4 °C 9.7 °C 1011.7 hPa ESE 2.7 km/h 5.6 km/h 78 % 0.0 mm
10:18 13.5 °C 9.9 °C 1011.7 hPa SE 1.8 km/h 8.0 km/h 79 % 0.0 mm
10:23 13.3 °C 9.5 °C 1011.7 hPa ESE 2.6 km/h 9.7 km/h 78 % 0.0 mm
10:28 13.2 °C 9.4 °C 1011.7 hPa ESE 1.1 km/h 3.2 km/h 78 % 0.0 mm
10:33 13.3 °C 9.5 °C 1012.1 hPa SE 2.9 km/h 5.6 km/h 78 % 0.0 mm
10:38 13.6 °C 9.6 °C 1011.7 hPa SE 1.4 km/h 1.9 km/h 77 % 0.0 mm
10:43 13.9 °C 9.7 °C 1011.7 hPa ESE 2.7 km/h 6.4 km/h 76 % 0.0 mm
10:48 14.1 °C 9.7 °C 1012.1 hPa ESE 2.7 km/h 6.4 km/h 75 % 0.0 mm
10:53 14.4 °C 10.0 °C 1012.1 hPa East 1.6 km/h 3.7 km/h 75 % 0.0 mm
10:58 14.4 °C 9.7 °C 1012.1 hPa ENE 2.3 km/h 5.6 km/h 73 % 0.0 mm
11:03 14.3 °C 9.9 °C 1012.1 hPa ESE 2.9 km/h 8.0 km/h 75 % 0.0 mm
11:09 14.4 °C 10.4 °C 1012.1 hPa East 2.9 km/h 5.6 km/h 77 % 0.0 mm
11:14 14.6 °C 10.4 °C 1012.1 hPa SE 2.1 km/h 5.6 km/h 76 % 0.0 mm
11:19 14.5 °C 9.7 °C 1012.1 hPa ESE 3.5 km/h 6.4 km/h 73 % 0.0 mm
11:21 14.6 °C 10.0 °C 1012.1 hPa SE 1.3 km/h 5.6 km/h 74 % 0.0 mm
11:26 14.8 °C 9.8 °C 1012.1 hPa ESE 4.7 km/h 9.7 km/h 72 % 0.0 mm
11:31 14.8 °C 9.8 °C 1012.1 hPa SE 3.5 km/h 8.0 km/h 72 % 0.0 mm
11:36 14.9 °C 10.2 °C 1012.4 hPa East 1.6 km/h 5.6 km/h 73 % 0.0 mm
11:41 15.1 °C 10.1 °C 1012.4 hPa ESE 4.0 km/h 9.7 km/h 72 % 0.0 mm
11:46 15.0 °C 9.8 °C 1012.8 hPa East 8.2 km/h 16.1 km/h 71 % 0.0 mm
11:51 15.0 °C 10.0 °C 1012.4 hPa ENE 1.9 km/h 5.6 km/h 72 % 0.0 mm
11:56 15.1 °C 10.1 °C 1012.4 hPa East 2.9 km/h 6.4 km/h 72 % 0.0 mm
12:01 14.9 °C 9.5 °C 1012.8 hPa East 2.9 km/h 6.4 km/h 70 % 0.0 mm
12:06 14.7 °C 9.5 °C 1012.4 hPa ENE 5.1 km/h 8.0 km/h 71 % 0.0 mm
12:11 14.7 °C 9.7 °C 1012.4 hPa SE 3.4 km/h 8.0 km/h 72 % 0.0 mm
12:16 14.8 °C 9.6 °C 1012.4 hPa ESE 3.5 km/h 9.7 km/h 71 % 0.0 mm
12:21 14.8 °C 9.6 °C 1012.8 hPa East 2.6 km/h 5.6 km/h 71 % 0.0 mm
12:26 14.9 °C 9.9 °C 1012.8 hPa SE 4.0 km/h 11.3 km/h 72 % 0.0 mm
12:32 14.8 °C 9.4 °C 1012.4 hPa ESE 9.7 km/h 18.5 km/h 70 % 0.0 mm
12:37 14.7 °C 9.7 °C 1012.4 hPa ESE 5.3 km/h 9.7 km/h 72 % 0.0 mm
12:42 15.2 °C 10.4 °C 1012.8 hPa ESE 2.1 km/h 5.6 km/h 73 % 0.0 mm
12:47 15.2 °C 10.0 °C 1012.8 hPa SSE 5.0 km/h 8.0 km/h 71 % 0.0 mm
12:52 15.4 °C 10.2 °C 1012.8 hPa East 3.9 km/h 6.4 km/h 71 % 0.0 mm
12:57 15.6 °C 10.1 °C 1012.8 hPa East 4.3 km/h 11.3 km/h 70 % 0.0 mm
13:02 16.1 °C 10.4 °C 1012.8 hPa East 3.4 km/h 9.3 km/h 69 % 0.0 mm
13:07 15.9 °C 10.5 °C 1013.1 hPa East 4.5 km/h 6.4 km/h 70 % 0.0 mm
13:12 15.9 °C 10.2 °C 1013.1 hPa ESE 4.2 km/h 9.7 km/h 69 % 0.0 mm
Renvyle Weather
Compliments of Weather Underground - 2.25 mb

Script developed by  Jim McMurry - jmcmurry@mwt.net Adapted for the template by  Wim van der Kuil - Leuven-Template.eu

You find our weather info also at:

UK Metoffice

Weather Underground

Equipment we use:

Weather-station
Davis Vantage Vue

Weather-program
Weather Display

Weather-server
Dell 3050 Micro Desktop

Provider
RS Hosting

Davis Vantage Vue

Weather Display

Dell 3050 Micro Desktop

RS Hosting